Bao An Cheng 69 — BVBD5 — position and weather

sailwx.info

Track history (hours):
 
Tides and Currents Weather Stations Pressure Air Temp Water Temp Dewpoint Dewpoint Depression Visibility Wind Speed Wind Dir Waves Ship Positions

Bao An Cheng 69

Last reported at 2015-Jan-24 01:25 UTC. Time now 2015-Feb-01 10:16 UTC.
Position N 37°50' E 122°17'.
Warning: this ship's position is 8 days out of date.

Length 121 m; draft 5.7 m.

Type: Cargo ship. MMSI: 412703090.

Date/timePositionNaut miles runAvg speedWind from/ knotsBaromVisibWave heightAir tempDewpointWater temp
2015-Jan-24 01:25N 37°50' E 122°17'1010.8
2015-Jan-24 00:28N 37°44' E 122°28'1111.3
2015-Jan-23 23:28N 37°37' E 122°39'407 9.3
2015-Jan-22 03:33N 30°50' E 122°24'5 5.1
2015-Jan-22 02:32N 30°46' E 122°21'0 0.0
2015-Jan-22 01:28N 30°46' E 122°21'0 0.1
2015-Jan-22 00:22N 30°45' E 122°21'0 0.1
2015-Jan-21 23:31N 30°45' E 122°21'0 0.1
2015-Jan-21 22:32N 30°45' E 122°21'0 0.0
2015-Jan-21 21:26N 30°45' E 122°21'0 0.0
2015-Jan-21 18:23N 30°45' E 122°21'0 0.0
2015-Jan-21 17:32N 30°45' E 122°21'0 0.1
2015-Jan-21 16:29N 30°45' E 122°21'0 0.0
2015-Jan-21 15:26N 30°45' E 122°21'0 0.2
2015-Jan-21 14:32N 30°46' E 122°21'0 0.1
2015-Jan-21 13:20N 30°46' E 122°21'0 0.1
2015-Jan-21 12:32N 30°46' E 122°21'0 0.1
2015-Jan-21 11:26N 30°45' E 122°21'0 0.1
2015-Jan-21 10:26N 30°45' E 122°21'0 0.1
2015-Jan-21 09:33N 30°46' E 122°21'0 0.0
2015-Jan-21 08:32N 30°46' E 122°21'0 0.0
2015-Jan-21 07:32N 30°46' E 122°21'0 0.0
2015-Jan-21 06:33N 30°46' E 122°21'0 0.1
2015-Jan-21 05:33N 30°46' E 122°21'0 0.1
2015-Jan-21 04:33N 30°46' E 122°21'0 0.1
2015-Jan-21 03:33N 30°46' E 122°21'0 0.0
2015-Jan-21 02:33N 30°46' E 122°21'0 0.1
2015-Jan-21 01:33N 30°46' E 122°21'0 0.1
2015-Jan-21 00:33N 30°46' E 122°21'0 0.1
2015-Jan-20 23:18N 30°45' E 122°21'0 0.0
2015-Jan-20 22:30N 30°45' E 122°21'7 7.0
2015-Jan-20 21:33N 30°51' E 122°17'1110.8
2015-Jan-20 20:33N 31°01' E 122°12'1111.3
2015-Jan-20 19:33N 31°05' E 121°60'1110.8
2015-Jan-20 18:33N 31°12' E 121°49'10 9.7
2015-Jan-20 17:33N 31°19' E 121°42'8 7.8
2015-Jan-20 16:33N 31°23' E 121°34'7 6.7
2015-Jan-20 15:33N 31°27' E 121°28'8 8.3
2015-Jan-20 14:33N 31°33' E 121°20'8 8.4
2015-Jan-20 13:34N 31°39' E 121°13'0 0.1
2015-Jan-20 12:31N 31°39' E 121°13'0 0.0
2015-Jan-20 11:25N 31°39' E 121°13'0 0.0
2015-Jan-20 10:31N 31°39' E 121°13'0 0.0
2015-Jan-20 09:31N 31°39' E 121°13'0 0.0
2015-Jan-20 08:31N 31°39' E 121°13'0 0.0
2015-Jan-20 07:31N 31°39' E 121°13'0 0.0
2015-Jan-20 06:31N 31°39' E 121°13'1 0.9
2015-Jan-20 05:33N 31°39' E 121°14'1111.6
2015-Jan-20 04:33N 31°31' E 121°24'1110.7
2015-Jan-20 03:33N 31°24' E 121°34'1111.0
2015-Jan-20 02:33N 31°18' E 121°44'1313.3
2015-Jan-20 01:33N 31°08' E 121°55'21 5.3
2015-Jan-19 21:32N 30°57' E 122°16'9 8.8
2015-Jan-19 20:33N 30°49' E 122°19'9 8.9
2015-Jan-19 19:33N 30°40' E 122°15'9 9.4
2015-Jan-19 18:33N 30°32' E 122°10'1212.4
2015-Jan-19 17:34N 30°30' E 121°56'1110.9
2015-Jan-19 16:33N 30°29' E 121°43'8 8.5
2015-Jan-19 15:34N 30°31' E 121°34'8 7.7
2015-Jan-19 14:33N 30°33' E 121°25'7 6.5
2015-Jan-19 13:33N 30°33' E 121°17'7 6.8
2015-Jan-19 12:33N 30°33' E 121°09'2 0.1
2015-Jan-19 01:32N 30°33' E 121°11'1211.8
2015-Jan-19 00:33N 30°33' E 121°25'1312.6
2015-Jan-18 23:33N 30°30' E 121°39'1111.1
2015-Jan-18 22:34N 30°31' E 121°52'10 9.6
2015-Jan-18 21:33N 30°32' E 122°03'8 8.2
2015-Jan-18 20:33N 30°35' E 122°12'10 9.5
2015-Jan-18 19:33N 30°44' E 122°16'8 7.9
2015-Jan-18 18:33N 30°50' E 122°21'7 6.7
2015-Jan-18 17:33N 30°54' E 122°27'343 9.0
2015-Jan-17 03:32N 36°37' E 122°31'9 9.2
2015-Jan-17 02:33N 36°46' E 122°29'1 1.2
2015-Jan-17 01:32N 36°47' E 122°29'0 0.0
2015-Jan-17 00:32N 36°47' E 122°29'0 0.1
2015-Jan-16 23:32N 36°47' E 122°29'0 0.0
2015-Jan-16 22:14N 36°47' E 122°29'0 0.0
2015-Jan-16 21:32N 36°47' E 122°29'0 0.1
2015-Jan-16 20:32N 36°47' E 122°29'0 0.0
2015-Jan-16 18:14N 36°47' E 122°29'0 0.1
2015-Jan-16 17:14N 36°47' E 122°29'0 0.0
2015-Jan-16 16:26N 36°47' E 122°29'0 0.1
2015-Jan-16 15:32N 36°47' E 122°29'0 0.0
2015-Jan-16 14:32N 36°47' E 122°29'0 0.0
2015-Jan-16 13:32N 36°47' E 122°29'0 0.0
2015-Jan-16 12:20N 36°47' E 122°29'0 0.0
2015-Jan-16 11:32N 36°47' E 122°29'0 0.0
2015-Jan-16 10:26N 36°47' E 122°29'0 0.0
2015-Jan-16 09:26N 36°47' E 122°29'0 0.1
2015-Jan-16 08:32N 36°47' E 122°29'0 0.1
2015-Jan-16 07:26N 36°48' E 122°29'0 0.1
2015-Jan-16 06:26N 36°48' E 122°29'0 0.0
2015-Jan-16 05:32N 36°48' E 122°29'0 0.0
2015-Jan-16 04:32N 36°48' E 122°29'0 0.1
2015-Jan-16 03:08N 36°47' E 122°29'0 0.1
2015-Jan-16 02:32N 36°48' E 122°29'0 0.0
2015-Jan-16 01:32N 36°48' E 122°29'0 0.0
2015-Jan-16 00:08N 36°47' E 122°29'0 0.0
2015-Jan-15 23:32N 36°47' E 122°29'0 0.1
2015-Jan-15 22:32N 36°47' E 122°29'0 0.1
2015-Jan-15 21:26N 36°47' E 122°29'0 0.0
2015-Jan-15 20:20N 36°48' E 122°29'0 0.0
2015-Jan-15 19:20N 36°48' E 122°29'0 0.0
2015-Jan-15 17:20N 36°48' E 122°29'0 0.0
2015-Jan-15 16:26N 36°48' E 122°29'0 0.1
2015-Jan-15 15:30N 36°47' E 122°29'2 1.6
2015-Jan-15 14:31N 36°48' E 122°31'9 9.6
2015-Jan-15 13:33N 36°53' E 122°40'11 9.7
2015-Jan-15 12:23N 37°04' E 122°46'3010.4
2015-Jan-15 09:28N 37°33' E 122°39'1010.5
2015-Jan-15 08:34N 37°39' E 122°29'  
Track history (hours):
 
Tides and Currents Weather Stations Pressure Air Temp Water Temp Dewpoint Dewpoint Depression Visibility Wind Speed Wind Dir Waves Ship Positions

Bao An Cheng 69

Last reported at 2015-Jan-24 01:25 UTC. Time now 2015-Feb-01 10:16 UTC.
Position N 37°50' E 122°17'.
Warning: this ship's position is 8 days out of date.

Length 121 m; draft 5.7 m.

Type: Cargo ship. MMSI: 412703090.

Date/timePositionNaut miles runAvg speedWind from/ knotsBaromVisibWave heightAir tempDewpointWater temp
2015-Jan-24 01:25N 37°50' E 122°17'1010.8
2015-Jan-24 00:28N 37°44' E 122°28'1111.3
2015-Jan-23 23:28N 37°37' E 122°39'407 9.3
2015-Jan-22 03:33N 30°50' E 122°24'5 5.1
2015-Jan-22 02:32N 30°46' E 122°21'0 0.0
2015-Jan-22 01:28N 30°46' E 122°21'0 0.1
2015-Jan-22 00:22N 30°45' E 122°21'0 0.1
2015-Jan-21 23:31N 30°45' E 122°21'0 0.1
2015-Jan-21 22:32N 30°45' E 122°21'0 0.0
2015-Jan-21 21:26N 30°45' E 122°21'0 0.0
2015-Jan-21 18:23N 30°45' E 122°21'0 0.0
2015-Jan-21 17:32N 30°45' E 122°21'0 0.1
2015-Jan-21 16:29N 30°45' E 122°21'0 0.0
2015-Jan-21 15:26N 30°45' E 122°21'0 0.2
2015-Jan-21 14:32N 30°46' E 122°21'0 0.1
2015-Jan-21 13:20N 30°46' E 122°21'0 0.1
2015-Jan-21 12:32N 30°46' E 122°21'0 0.1
2015-Jan-21 11:26N 30°45' E 122°21'0 0.1
2015-Jan-21 10:26N 30°45' E 122°21'0 0.1
2015-Jan-21 09:33N 30°46' E 122°21'0 0.0
2015-Jan-21 08:32N 30°46' E 122°21'0 0.0
2015-Jan-21 07:32N 30°46' E 122°21'0 0.0
2015-Jan-21 06:33N 30°46' E 122°21'0 0.1
2015-Jan-21 05:33N 30°46' E 122°21'0 0.1
2015-Jan-21 04:33N 30°46' E 122°21'0 0.1
2015-Jan-21 03:33N 30°46' E 122°21'0 0.0
2015-Jan-21 02:33N 30°46' E 122°21'0 0.1
2015-Jan-21 01:33N 30°46' E 122°21'0 0.1
2015-Jan-21 00:33N 30°46' E 122°21'0 0.1
2015-Jan-20 23:18N 30°45' E 122°21'0 0.0
2015-Jan-20 22:30N 30°45' E 122°21'7 7.0
2015-Jan-20 21:33N 30°51' E 122°17'1110.8
2015-Jan-20 20:33N 31°01' E 122°12'1111.3
2015-Jan-20 19:33N 31°05' E 121°60'1110.8
2015-Jan-20 18:33N 31°12' E 121°49'10 9.7
2015-Jan-20 17:33N 31°19' E 121°42'8 7.8
2015-Jan-20 16:33N 31°23' E 121°34'7 6.7
2015-Jan-20 15:33N 31°27' E 121°28'8 8.3
2015-Jan-20 14:33N 31°33' E 121°20'8 8.4
2015-Jan-20 13:34N 31°39' E 121°13'0 0.1
2015-Jan-20 12:31N 31°39' E 121°13'0 0.0
2015-Jan-20 11:25N 31°39' E 121°13'0 0.0
2015-Jan-20 10:31N 31°39' E 121°13'0 0.0
2015-Jan-20 09:31N 31°39' E 121°13'0 0.0
2015-Jan-20 08:31N 31°39' E 121°13'0 0.0
2015-Jan-20 07:31N 31°39' E 121°13'0 0.0
2015-Jan-20 06:31N 31°39' E 121°13'1 0.9
2015-Jan-20 05:33N 31°39' E 121°14'1111.6
2015-Jan-20 04:33N 31°31' E 121°24'1110.7
2015-Jan-20 03:33N 31°24' E 121°34'1111.0
2015-Jan-20 02:33N 31°18' E 121°44'1313.3
2015-Jan-20 01:33N 31°08' E 121°55'21 5.3
2015-Jan-19 21:32N 30°57' E 122°16'9 8.8
2015-Jan-19 20:33N 30°49' E 122°19'9 8.9
2015-Jan-19 19:33N 30°40' E 122°15'9 9.4
2015-Jan-19 18:33N 30°32' E 122°10'1212.4
2015-Jan-19 17:34N 30°30' E 121°56'1110.9
2015-Jan-19 16:33N 30°29' E 121°43'8 8.5
2015-Jan-19 15:34N 30°31' E 121°34'8 7.7
2015-Jan-19 14:33N 30°33' E 121°25'7 6.5
2015-Jan-19 13:33N 30°33' E 121°17'7 6.8
2015-Jan-19 12:33N 30°33' E 121°09'2 0.1
2015-Jan-19 01:32N 30°33' E 121°11'1211.8
2015-Jan-19 00:33N 30°33' E 121°25'1312.6
2015-Jan-18 23:33N 30°30' E 121°39'1111.1
2015-Jan-18 22:34N 30°31' E 121°52'10 9.6
2015-Jan-18 21:33N 30°32' E 122°03'8 8.2
2015-Jan-18 20:33N 30°35' E 122°12'10 9.5
2015-Jan-18 19:33N 30°44' E 122°16'8 7.9
2015-Jan-18 18:33N 30°50' E 122°21'7 6.7
2015-Jan-18 17:33N 30°54' E 122°27'343 9.0
2015-Jan-17 03:32N 36°37' E 122°31'9 9.2
2015-Jan-17 02:33N 36°46' E 122°29'1 1.2
2015-Jan-17 01:32N 36°47' E 122°29'0 0.0
2015-Jan-17 00:32N 36°47' E 122°29'0 0.1
2015-Jan-16 23:32N 36°47' E 122°29'0 0.0
2015-Jan-16 22:14N 36°47' E 122°29'0 0.0
2015-Jan-16 21:32N 36°47' E 122°29'0 0.1
2015-Jan-16 20:32N 36°47' E 122°29'0 0.0
2015-Jan-16 18:14N 36°47' E 122°29'0 0.1
2015-Jan-16 17:14N 36°47' E 122°29'0 0.0
2015-Jan-16 16:26N 36°47' E 122°29'0 0.1
2015-Jan-16 15:32N 36°47' E 122°29'0 0.0
2015-Jan-16 14:32N 36°47' E 122°29'0 0.0
2015-Jan-16 13:32N 36°47' E 122°29'0 0.0
2015-Jan-16 12:20N 36°47' E 122°29'0 0.0
2015-Jan-16 11:32N 36°47' E 122°29'0 0.0
2015-Jan-16 10:26N 36°47' E 122°29'0 0.0
2015-Jan-16 09:26N 36°47' E 122°29'0 0.1
2015-Jan-16 08:32N 36°47' E 122°29'0 0.1
2015-Jan-16 07:26N 36°48' E 122°29'0 0.1
2015-Jan-16 06:26N 36°48' E 122°29'0 0.0
2015-Jan-16 05:32N 36°48' E 122°29'0 0.0
2015-Jan-16 04:32N 36°48' E 122°29'0 0.1
2015-Jan-16 03:08N 36°47' E 122°29'0 0.1
2015-Jan-16 02:32N 36°48' E 122°29'0 0.0
2015-Jan-16 01:32N 36°48' E 122°29'0 0.0
2015-Jan-16 00:08N 36°47' E 122°29'0 0.0
2015-Jan-15 23:32N 36°47' E 122°29'0 0.1
2015-Jan-15 22:32N 36°47' E 122°29'0 0.1
2015-Jan-15 21:26N 36°47' E 122°29'0 0.0
2015-Jan-15 20:20N 36°48' E 122°29'0 0.0
2015-Jan-15 19:20N 36°48' E 122°29'0 0.0
2015-Jan-15 17:20N 36°48' E 122°29'0 0.0
2015-Jan-15 16:26N 36°48' E 122°29'0 0.1
2015-Jan-15 15:30N 36°47' E 122°29'2 1.6
2015-Jan-15 14:31N 36°48' E 122°31'9 9.6
2015-Jan-15 13:33N 36°53' E 122°40'11 9.7
2015-Jan-15 12:23N 37°04' E 122°46'3010.4
2015-Jan-15 09:28N 37°33' E 122°39'1010.5
2015-Jan-15 08:34N 37°39' E 122°29'  

Dump ship's entire track history